Time;durP1;ratioP1;P1;durP2;ratioP2;P2;SDS_P1;SDS_P2;PMS_P1;PMS_P2;Temp;Humidity;BMP_temperature;BMP_pressure;BME280_temperature;BME280_humidity;BME280_pressure;Samples;Min_cycle;Max_cycle;Signal;HPM_P1;HPM_P2
2023/05/30 00:00:18;;;;;;;5.27;3.13;;;;;;;;;;5027037;28;20279;-27
2023/05/30 00:02:45;;;;;;;6.80;3.00;;;;;;;;;;5023867;28;20213;-26
2023/05/30 00:05:13;;;;;;;5.40;2.17;;;;;;;;;;5019798;28;20229;-26
2023/05/30 00:07:40;;;;;;;4.87;2.70;;;;;;;;;;5029520;28;20274;-27
2023/05/30 00:10:09;;;;;;;4.37;2.70;;;;;;;;;;5020910;28;20245;-28
2023/05/30 00:12:36;;;;;;;12.53;3.13;;;;;;;;;;5019647;28;20226;-29
2023/05/30 00:15:03;;;;;;;3.87;2.63;;;;;;;;;;5028476;28;20686;-26
2023/05/30 00:17:32;;;;;;;3.43;2.90;;;;;;;;;;5016746;28;20204;-28
2023/05/30 00:19:59;;;;;;;2.53;2.33;;;;;;;;;;5027253;28;20675;-28
2023/05/30 00:22:26;;;;;;;4.57;2.77;;;;;;;;;;5013088;28;20245;-25
2023/05/30 00:24:53;;;;;;;2.93;2.63;;;;;;;;;;5020405;28;20241;-25
2023/05/30 00:27:22;;;;;;;3.57;3.00;;;;;;;;;;5015293;28;20225;-27
2023/05/30 00:29:49;;;;;;;4.40;3.07;;;;;;;;;;5020835;28;20202;-28
2023/05/30 00:32:16;;;;;;;5.03;2.73;;;;;;;;;;5019397;28;20214;-26
2023/05/30 00:34:43;;;;;;;3.17;2.57;;;;;;;;;;5018124;28;20266;-27
2023/05/30 00:37:10;;;;;;;4.67;2.70;;;;;;;;;;5028167;28;20246;-27
2023/05/30 00:39:37;;;;;;;3.80;2.80;;;;;;;;;;5029572;28;20221;-28
2023/05/30 00:42:05;;;;;;;3.37;2.70;;;;;;;;;;5025214;28;20220;-24
2023/05/30 00:44:33;;;;;;;2.80;2.60;;;;;;;;;;5023913;28;20225;-27
2023/05/30 00:47:01;;;;;;;4.17;2.40;;;;;;;;;;5023473;28;20233;-24
2023/05/30 00:49:28;;;;;;;3.03;2.33;;;;;;;;;;5032459;28;20212;-27
2023/05/30 00:51:56;;;;;;;3.20;2.90;;;;;;;;;;5016076;28;20210;-27
2023/05/30 00:54:23;;;;;;;2.47;2.27;;;;;;;;;;5011211;28;20225;-26
2023/05/30 00:56:51;;;;;;;2.97;2.63;;;;;;;;;;5021265;28;20233;-25
2023/05/30 00:59:18;;;;;;;4.60;2.87;;;;;;;;;;5028601;28;20203;-28
2023/05/30 01:01:46;;;;;;;5.40;3.13;;;;;;;;;;5015255;28;20216;-28
2023/05/30 01:04:14;;;;;;;4.20;2.97;;;;;;;;;;5026395;28;20226;-27
2023/05/30 01:06:41;;;;;;;10.37;3.10;;;;;;;;;;5020363;28;20225;-28
2023/05/30 01:09:09;;;;;;;2.60;2.40;;;;;;;;;;5030928;28;20210;-27
2023/05/30 01:11:42;;;;;;;3.07;2.37;;;;;;;;;;5014938;28;20205;-26
2023/05/30 01:14:12;;;;;;;3.00;2.50;;;;;;;;;;5014300;28;20224;-27
2023/05/30 01:16:44;;;;;;;6.33;3.10;;;;;;;;;;5025867;28;20221;-28
2023/05/30 01:19:22;;;;;;;3.90;2.70;;;;;;;;;;5023364;28;20209;-25
2023/05/30 01:21:52;;;;;;;4.03;2.70;;;;;;;;;;5031768;28;20259;-25
2023/05/30 01:24:21;;;;;;;3.47;2.70;;;;;;;;;;5030027;28;20234;-27
2023/05/30 01:26:56;;;;;;;6.03;2.80;;;;;;;;;;5017383;28;20237;-28
2023/05/30 01:29:25;;;;;;;6.13;2.50;;;;;;;;;;5023846;28;20263;-25
2023/05/30 01:31:53;;;;;;;4.47;2.70;;;;;;;;;;5023359;28;20217;-28
2023/05/30 01:34:20;;;;;;;3.37;2.60;;;;;;;;;;5023419;28;20211;-28
2023/05/30 01:36:47;;;;;;;4.97;2.97;;;;;;;;;;5031762;28;20229;-27
2023/05/30 01:39:15;;;;;;;3.27;2.70;;;;;;;;;;5026174;28;20212;-28
2023/05/30 01:41:46;;;;;;;4.00;2.60;;;;;;;;;;5023553;28;20206;-24
2023/05/30 01:44:16;;;;;;;4.07;2.50;;;;;;;;;;5023083;28;20569;-25
2023/05/30 01:46:47;;;;;;;3.40;2.70;;;;;;;;;;5021822;28;20558;-27
2023/05/30 01:49:17;;;;;;;3.07;2.63;;;;;;;;;;5023369;28;20210;-27
2023/05/30 01:51:46;;;;;;;3.70;2.90;;;;;;;;;;5031979;28;20209;-26
2023/05/30 01:54:14;;;;;;;2.83;2.53;;;;;;;;;;5030725;28;20224;-26
2023/05/30 01:56:43;;;;;;;4.20;2.80;;;;;;;;;;5025977;28;20216;-26
2023/05/30 01:59:11;;;;;;;3.13;2.60;;;;;;;;;;5022982;28;20510;-24
2023/05/30 02:01:38;;;;;;;2.77;2.57;;;;;;;;;;5020955;28;20217;-26
2023/05/30 02:04:06;;;;;;;3.50;2.70;;;;;;;;;;5014450;28;20209;-25
2023/05/30 02:06:35;;;;;;;3.90;2.57;;;;;;;;;;5031920;28;20242;-25
2023/05/30 02:09:02;;;;;;;2.30;2.10;;;;;;;;;;5025622;28;20205;-24
2023/05/30 02:11:29;;;;;;;3.10;2.50;;;;;;;;;;5020230;28;20200;-27
2023/05/30 02:13:57;;;;;;;2.93;2.67;;;;;;;;;;5028643;28;20215;-24
2023/05/30 02:16:25;;;;;;;5.13;2.83;;;;;;;;;;5010054;28;20222;-27
2023/05/30 02:18:52;;;;;;;4.40;2.47;;;;;;;;;;5023688;28;20209;-25
2023/05/30 02:21:21;;;;;;;6.93;3.00;;;;;;;;;;5013445;28;20208;-27
2023/05/30 02:23:48;;;;;;;2.97;2.57;;;;;;;;;;5013503;28;20237;-26
2023/05/30 02:26:15;;;;;;;5.70;3.07;;;;;;;;;;5013994;28;20231;-26
2023/05/30 02:28:42;;;;;;;4.50;2.87;;;;;;;;;;5021349;28;20201;-26
2023/05/30 02:31:09;;;;;;;3.93;3.10;;;;;;;;;;5024784;28;20212;-27
2023/05/30 02:33:37;;;;;;;3.23;2.87;;;;;;;;;;5012988;28;20194;-25
2023/05/30 02:36:04;;;;;;;3.47;3.00;;;;;;;;;;5010655;28;20232;-26
2023/05/30 02:38:32;;;;;;;3.57;2.83;;;;;;;;;;5011239;28;20209;-26
2023/05/30 02:40:59;;;;;;;2.70;2.30;;;;;;;;;;5018942;28;20212;-27
2023/05/30 02:43:27;;;;;;;4.10;2.70;;;;;;;;;;5025785;28;20240;-26
2023/05/30 02:45:54;;;;;;;4.97;2.70;;;;;;;;;;5006514;28;20240;-27
2023/05/30 02:48:21;;;;;;;3.10;2.60;;;;;;;;;;5022596;28;20201;-24
2023/05/30 02:50:48;;;;;;;3.57;2.70;;;;;;;;;;5026343;28;20206;-26
2023/05/30 02:53:15;;;;;;;4.20;2.90;;;;;;;;;;5029863;28;20211;-26
2023/05/30 02:55:44;;;;;;;4.40;3.00;;;;;;;;;;5028584;28;20227;-26
2023/05/30 02:58:13;;;;;;;3.07;2.63;;;;;;;;;;5026226;28;20215;-25
2023/05/30 03:00:40;;;;;;;2.83;2.40;;;;;;;;;;5028289;28;20254;-27
2023/05/30 03:03:08;;;;;;;3.90;2.80;;;;;;;;;;5017893;28;20212;-27
2023/05/30 03:05:35;;;;;;;3.93;3.00;;;;;;;;;;5009129;28;20225;-29
2023/05/30 03:08:02;;;;;;;4.53;3.07;;;;;;;;;;5010954;28;20208;-25
2023/05/30 03:10:29;;;;;;;3.27;2.43;;;;;;;;;;5008838;28;20206;-27
2023/05/30 03:12:58;;;;;;;3.27;2.60;;;;;;;;;;5019049;28;20251;-24
2023/05/30 03:15:26;;;;;;;3.30;2.80;;;;;;;;;;5017339;28;20566;-24
2023/05/30 03:17:53;;;;;;;4.27;2.60;;;;;;;;;;5022699;28;20208;-25
2023/05/30 03:20:23;;;;;;;4.50;3.07;;;;;;;;;;5026223;28;20206;-25
2023/05/30 03:22:50;;;;;;;4.70;2.80;;;;;;;;;;5012040;28;20480;-27
2023/05/30 03:25:17;;;;;;;4.83;3.00;;;;;;;;;;5025443;28;20220;-26
2023/05/30 03:27:50;;;;;;;4.13;2.77;;;;;;;;;;5011702;28;20211;-25
2023/05/30 03:30:20;;;;;;;7.43;2.60;;;;;;;;;;5010583;28;20585;-24
2023/05/30 03:32:48;;;;;;;2.77;2.53;;;;;;;;;;5024686;28;20240;-25
2023/05/30 03:35:15;;;;;;;6.13;3.30;;;;;;;;;;5010022;28;20259;-26
2023/05/30 03:37:42;;;;;;;3.70;2.47;;;;;;;;;;5010720;28;20213;-25
2023/05/30 03:40:10;;;;;;;3.87;2.70;;;;;;;;;;5015222;28;20451;-27
2023/05/30 03:42:37;;;;;;;4.93;3.30;;;;;;;;;;5019019;28;20208;-26
2023/05/30 03:45:05;;;;;;;4.27;2.67;;;;;;;;;;5018430;28;20234;-24
2023/05/30 03:47:33;;;;;;;3.63;2.80;;;;;;;;;;5020635;28;20221;-24
2023/05/30 03:50:01;;;;;;;4.50;2.80;;;;;;;;;;5023091;28;20211;-25
2023/05/30 03:52:28;;;;;;;3.23;2.57;;;;;;;;;;5032054;28;20236;-26
2023/05/30 03:54:55;;;;;;;5.17;2.83;;;;;;;;;;5022838;28;20218;-25
2023/05/30 03:57:22;;;;;;;3.83;3.03;;;;;;;;;;5016587;28;20307;-26
2023/05/30 03:59:50;;;;;;;3.97;2.77;;;;;;;;;;5032653;28;20207;-27
2023/05/30 04:02:17;;;;;;;3.60;2.70;;;;;;;;;;5014776;28;20215;-28
2023/05/30 04:04:46;;;;;;;5.67;3.00;;;;;;;;;;5020570;28;20203;-26
2023/05/30 04:07:13;;;;;;;5.53;2.67;;;;;;;;;;5025371;28;20227;-26
2023/05/30 04:09:40;;;;;;;4.37;2.80;;;;;;;;;;5016234;28;20208;-25
2023/05/30 04:12:07;;;;;;;3.77;2.80;;;;;;;;;;5021400;28;20212;-24
2023/05/30 04:14:34;;;;;;;3.30;2.63;;;;;;;;;;5021320;28;20419;-25
2023/05/30 04:17:32;;;;;;;4.97;2.67;;;;;;;;;;5024476;28;20226;-26
2023/05/30 04:20:08;;;;;;;3.10;2.60;;;;;;;;;;5024581;28;20213;-25
2023/05/30 04:22:35;;;;;;;3.50;2.63;;;;;;;;;;5022232;28;20275;-27
2023/05/30 04:25:03;;;;;;;3.83;3.23;;;;;;;;;;5019548;28;20216;-26
2023/05/30 04:27:31;;;;;;;4.20;2.70;;;;;;;;;;5017321;28;20208;-25
2023/05/30 04:30:03;;;;;;;4.00;2.50;;;;;;;;;;5018561;28;20201;-25
2023/05/30 04:32:33;;;;;;;3.83;2.97;;;;;;;;;;5028413;28;20214;-25
2023/05/30 04:35:00;;;;;;;3.97;2.37;;;;;;;;;;5019167;28;20327;-25
2023/05/30 04:37:29;;;;;;;4.60;3.27;;;;;;;;;;5036161;28;20214;-27
2023/05/30 04:39:57;;;;;;;4.80;2.90;;;;;;;;;;5030967;28;20211;-24
2023/05/30 04:42:26;;;;;;;4.23;2.93;;;;;;;;;;5028458;28;20203;-28
2023/05/30 04:44:54;;;;;;;4.10;2.80;;;;;;;;;;5019222;28;20204;-24
2023/05/30 04:47:24;;;;;;;4.33;2.90;;;;;;;;;;5017482;28;20314;-26
2023/05/30 04:49:53;;;;;;;4.33;3.03;;;;;;;;;;5015568;28;20204;-26
2023/05/30 04:52:20;;;;;;;3.07;2.60;;;;;;;;;;5016120;28;20219;-24
2023/05/30 04:54:49;;;;;;;4.03;2.90;;;;;;;;;;5015778;28;20212;-26
2023/05/30 04:57:16;;;;;;;3.63;2.83;;;;;;;;;;5019827;28;20743;-26
2023/05/30 04:59:43;;;;;;;5.43;3.27;;;;;;;;;;5017308;28;20207;-28
2023/05/30 05:02:10;;;;;;;2.63;2.43;;;;;;;;;;5283649;22;20247;-29
2023/05/30 05:04:38;;;;;;;3.07;2.77;;;;;;;;;;5031613;28;20224;-34
2023/05/30 05:07:05;;;;;;;3.30;2.63;;;;;;;;;;5032834;28;20217;-33
2023/05/30 05:09:32;;;;;;;4.90;3.20;;;;;;;;;;5032977;28;20208;-34
2023/05/30 05:12:03;;;;;;;5.93;2.70;;;;;;;;;;5016628;28;20219;-34
2023/05/30 05:14:30;;;;;;;3.80;2.97;;;;;;;;;;5014975;28;20211;-33
2023/05/30 05:16:58;;;;;;;3.47;2.70;;;;;;;;;;5025159;28;20698;-33
2023/05/30 05:19:25;;;;;;;4.10;2.93;;;;;;;;;;5020072;28;20261;-36
2023/05/30 05:21:52;;;;;;;3.90;2.83;;;;;;;;;;5019092;28;20213;-34
2023/05/30 05:24:19;;;;;;;4.60;3.10;;;;;;;;;;5015413;28;20212;-34
2023/05/30 05:26:46;;;;;;;5.30;2.90;;;;;;;;;;5023322;28;20243;-34
2023/05/30 05:29:15;;;;;;;3.10;2.80;;;;;;;;;;5026140;28;20208;-31
2023/05/30 05:31:42;;;;;;;2.80;2.53;;;;;;;;;;5032113;28;20235;-34
2023/05/30 05:34:09;;;;;;;8.63;3.57;;;;;;;;;;5029516;28;20216;-32
2023/05/30 05:36:37;;;;;;;7.37;3.73;;;;;;;;;;5026292;28;20628;-34
2023/05/30 05:39:04;;;;;;;7.07;3.00;;;;;;;;;;5025517;28;20205;-32
2023/05/30 05:41:31;;;;;;;4.33;2.70;;;;;;;;;;5019879;28;20207;-34
2023/05/30 05:43:58;;;;;;;5.03;2.90;;;;;;;;;;5023831;28;20205;-34
2023/05/30 05:46:27;;;;;;;7.63;3.53;;;;;;;;;;5026361;28;20233;-32
2023/05/30 05:48:55;;;;;;;5.87;3.20;;;;;;;;;;5019889;28;20206;-33
2023/05/30 05:51:22;;;;;;;5.67;3.40;;;;;;;;;;5020421;28;20206;-32
2023/05/30 05:53:49;;;;;;;5.17;2.90;;;;;;;;;;5012674;28;20230;-31
2023/05/30 05:56:16;;;;;;;5.37;3.00;;;;;;;;;;5020901;28;20229;-33
2023/05/30 05:58:44;;;;;;;5.07;3.00;;;;;;;;;;5021531;28;20208;-32
2023/05/30 06:01:11;;;;;;;3.83;2.83;;;;;;;;;;5020396;28;20211;-37
2023/05/30 06:03:39;;;;;;;6.00;3.10;;;;;;;;;;5021317;28;20204;-30
2023/05/30 06:06:07;;;;;;;6.10;3.07;;;;;;;;;;5022222;28;20239;-33
2023/05/30 06:08:35;;;;;;;4.23;2.60;;;;;;;;;;5032254;28;20207;-35
2023/05/30 06:11:02;;;;;;;2.90;2.60;;;;;;;;;;5028519;28;20217;-32
2023/05/30 06:13:29;;;;;;;3.70;3.20;;;;;;;;;;5020512;28;20209;-33
2023/05/30 06:15:56;;;;;;;6.40;2.93;;;;;;;;;;5024180;28;20229;-33
2023/05/30 06:18:23;;;;;;;3.70;2.20;;;;;;;;;;5024721;28;20298;-33
2023/05/30 06:20:51;;;;;;;3.03;2.40;;;;;;;;;;5020392;28;20205;-33
2023/05/30 06:23:19;;;;;;;4.40;2.70;;;;;;;;;;5031945;28;20315;-35
2023/05/30 06:25:47;;;;;;;5.03;2.93;;;;;;;;;;5024274;28;20237;-33
2023/05/30 06:28:14;;;;;;;5.53;2.70;;;;;;;;;;5014663;28;20295;-35
2023/05/30 06:30:41;;;;;;;3.43;2.60;;;;;;;;;;5017146;28;20644;-35
2023/05/30 06:33:08;;;;;;;5.73;3.33;;;;;;;;;;5027437;28;20211;-33
2023/05/30 06:35:35;;;;;;;4.80;3.17;;;;;;;;;;5034144;28;20314;-28
2023/05/30 06:38:04;;;;;;;5.80;2.77;;;;;;;;;;5034002;28;20208;-33
2023/05/30 06:40:34;;;;;;;3.17;2.67;;;;;;;;;;5031775;28;20212;-35
2023/05/30 06:43:01;;;;;;;4.83;2.53;;;;;;;;;;5018509;28;20261;-35
2023/05/30 06:45:28;;;;;;;4.27;2.97;;;;;;;;;;5026802;28;20313;-35
2023/05/30 06:47:55;;;;;;;3.17;2.30;;;;;;;;;;5027362;28;20234;-30
2023/05/30 06:50:23;;;;;;;3.87;2.80;;;;;;;;;;5025068;28;20207;-32
2023/05/30 06:52:50;;;;;;;4.40;2.80;;;;;;;;;;5032797;28;20204;-32
2023/05/30 06:55:18;;;;;;;4.80;2.73;;;;;;;;;;5031160;28;20208;-33
2023/05/30 06:57:46;;;;;;;5.77;2.57;;;;;;;;;;5015154;28;20210;-34
2023/05/30 07:00:14;;;;;;;3.27;2.63;;;;;;;;;;5018381;28;20289;-39
2023/05/30 07:02:41;;;;;;;3.43;2.70;;;;;;;;;;5020439;28;20220;-34
2023/05/30 07:05:08;;;;;;;10.40;2.67;;;;;;;;;;5024734;28;20202;-34
2023/05/30 07:07:36;;;;;;;5.20;3.03;;;;;;;;;;5019390;28;20305;-36
2023/05/30 07:10:03;;;;;;;3.73;2.43;;;;;;;;;;5011154;28;20210;-33
2023/05/30 07:12:32;;;;;;;3.37;2.43;;;;;;;;;;5023140;28;20242;-33
2023/05/30 07:14:59;;;;;;;4.90;2.60;;;;;;;;;;5023904;28;20202;-31
2023/05/30 07:17:27;;;;;;;3.77;2.60;;;;;;;;;;5021148;28;20195;-33
2023/05/30 07:19:54;;;;;;;4.43;2.70;;;;;;;;;;5011346;28;20585;-35
2023/05/30 07:22:21;;;;;;;7.03;3.10;;;;;;;;;;5032273;28;20207;-33
2023/05/30 07:24:48;;;;;;;6.27;2.87;;;;;;;;;;5024000;28;20982;-31
2023/05/30 07:27:15;;;;;;;3.40;2.60;;;;;;;;;;5018381;28;20242;-33
2023/05/30 07:29:44;;;;;;;7.27;3.10;;;;;;;;;;5010888;28;20253;-33
2023/05/30 07:32:12;;;;;;;2.97;2.60;;;;;;;;;;5016989;28;20207;-33
2023/05/30 07:34:39;;;;;;;5.05;2.78;;;;;;;;;;5026984;28;20280;-35
2023/05/30 07:37:07;;;;;;;4.22;2.70;;;;;;;;;;5019713;28;20218;-34
2023/05/30 07:39:34;;;;;;;3.97;3.00;;;;;;;;;;5013029;28;20230;-33
2023/05/30 07:42:01;;;;;;;5.73;2.50;;;;;;;;;;5026047;28;20234;-31
2023/05/30 07:44:29;;;;;;;3.60;2.50;;;;;;;;;;5015289;28;20310;-34
2023/05/30 07:46:57;;;;;;;4.50;3.13;;;;;;;;;;5023090;28;20237;-31
2023/05/30 07:49:25;;;;;;;4.32;3.15;;;;;;;;;;5015223;28;20203;-34
2023/05/30 07:51:52;;;;;;;4.18;2.67;;;;;;;;;;5023841;28;20230;-33
2023/05/30 07:54:19;;;;;;;4.63;2.60;;;;;;;;;;5026565;28;20211;-34
2023/05/30 07:56:46;;;;;;;4.60;2.80;;;;;;;;;;5013339;28;20231;-33
2023/05/30 07:59:13;;;;;;;4.03;2.53;;;;;;;;;;5021828;28;20199;-33
2023/05/30 08:01:41;;;;;;;5.25;2.80;;;;;;;;;;5020055;28;20210;-34
2023/05/30 08:04:10;;;;;;;4.38;2.80;;;;;;;;;;5017452;28;20215;-34
2023/05/30 08:06:37;;;;;;;4.82;2.72;;;;;;;;;;5030715;28;20222;-33
2023/05/30 08:09:04;;;;;;;3.58;2.80;;;;;;;;;;5027096;28;20215;-33
2023/05/30 08:11:31;;;;;;;3.45;2.67;;;;;;;;;;5030292;28;20279;-33
2023/05/30 08:13:58;;;;;;;4.57;2.75;;;;;;;;;;5023888;28;20213;-30
2023/05/30 08:16:26;;;;;;;5.57;3.03;;;;;;;;;;5018848;28;20233;-35
2023/05/30 08:18:53;;;;;;;4.22;2.55;;;;;;;;;;5031657;28;20212;-33
2023/05/30 08:21:21;;;;;;;5.32;2.67;;;;;;;;;;5023727;28;20218;-35
2023/05/30 08:23:49;;;;;;;3.15;2.47;;;;;;;;;;5014002;28;20214;-35
2023/05/30 08:26:16;;;;;;;3.47;2.63;;;;;;;;;;5017702;28;20231;-33
2023/05/30 08:28:43;;;;;;;5.45;2.97;;;;;;;;;;5028173;28;20214;-33
2023/05/30 08:31:14;;;;;;;4.55;2.58;;;;;;;;;;5008889;28;20212;-34
2023/05/30 08:33:41;;;;;;;9.77;3.10;;;;;;;;;;5017466;28;20239;-36
2023/05/30 08:36:08;;;;;;;4.30;2.88;;;;;;;;;;5024405;28;20231;-36
2023/05/30 08:38:37;;;;;;;4.95;3.00;;;;;;;;;;5028858;28;20204;-35
2023/05/30 08:41:04;;;;;;;3.78;2.72;;;;;;;;;;5016748;28;20213;-33
2023/05/30 08:43:31;;;;;;;8.82;3.20;;;;;;;;;;5023988;28;20204;-33
2023/05/30 08:45:58;;;;;;;7.85;2.65;;;;;;;;;;5027425;28;20225;-33
2023/05/30 08:48:26;;;;;;;3.33;2.40;;;;;;;;;;5026727;28;20255;-33
2023/05/30 08:50:54;;;;;;;4.90;2.67;;;;;;;;;;5023755;28;20662;-35
2023/05/30 08:53:25;;;;;;;5.63;3.42;;;;;;;;;;5031291;28;20210;-33
2023/05/30 08:55:56;;;;;;;5.85;2.88;;;;;;;;;;5026176;28;20237;-35
2023/05/30 08:58:24;;;;;;;5.07;3.00;;;;;;;;;;5021798;28;20232;-36
2023/05/30 09:00:51;;;;;;;4.45;3.13;;;;;;;;;;5017830;28;20258;-34
2023/05/30 09:03:20;;;;;;;5.50;3.08;;;;;;;;;;5011412;28;20208;-32
2023/05/30 09:05:47;;;;;;;5.32;2.63;;;;;;;;;;5023228;28;20284;-32
2023/05/30 09:08:15;;;;;;;4.70;2.78;;;;;;;;;;5029406;28;20231;-34
2023/05/30 09:10:47;;;;;;;4.25;2.75;;;;;;;;;;5028954;28;20296;-33
2023/05/30 09:13:16;;;;;;;5.28;2.92;;;;;;;;;;5023401;28;20286;-35
2023/05/30 09:15:43;;;;;;;5.05;2.60;;;;;;;;;;5014127;28;20226;-31
2023/05/30 09:18:10;;;;;;;6.07;3.00;;;;;;;;;;5016449;28;20553;-33
2023/05/30 09:20:39;;;;;;;4.68;2.78;;;;;;;;;;5013784;28;20206;-36
2023/05/30 09:23:06;;;;;;;4.55;3.00;;;;;;;;;;5022631;28;20213;-32
2023/05/30 09:25:42;;;;;;;4.43;2.83;;;;;;;;;;5019802;28;20232;-32
2023/05/30 09:28:09;;;;;;;6.90;3.03;;;;;;;;;;5023589;28;20222;-36
2023/05/30 09:30:52;;;;;;;5.75;3.35;;;;;;;;;;5033450;28;20199;-33
2023/05/30 09:33:20;;;;;;;5.38;3.13;;;;;;;;;;5022265;28;20201;-34
2023/05/30 09:35:47;;;;;;;7.20;3.20;;;;;;;;;;5014467;28;20228;-34
2023/05/30 09:38:16;;;;;;;3.33;2.63;;;;;;;;;;5017141;28;20202;-33
2023/05/30 09:40:43;;;;;;;5.32;2.80;;;;;;;;;;5029414;28;20207;-29
2023/05/30 09:43:10;;;;;;;4.25;2.83;;;;;;;;;;5034288;28;20215;-31
2023/05/30 09:45:39;;;;;;;3.83;2.70;;;;;;;;;;5031087;28;20233;-33
2023/05/30 09:48:09;;;;;;;4.50;2.88;;;;;;;;;;5019119;28;20231;-32
2023/05/30 09:50:37;;;;;;;5.50;2.65;;;;;;;;;;5033825;28;20200;-35
2023/05/30 09:53:04;;;;;;;5.13;3.00;;;;;;;;;;5032473;28;20203;-35
2023/05/30 09:55:32;;;;;;;4.32;2.90;;;;;;;;;;5025272;28;20236;-33
2023/05/30 09:57:59;;;;;;;5.15;2.60;;;;;;;;;;5027905;28;20214;-33
2023/05/30 10:00:28;;;;;;;3.83;2.30;;;;;;;;;;5034035;28;20200;-31
2023/05/30 10:02:58;;;;;;;4.10;2.85;;;;;;;;;;5021459;28;20215;-32
2023/05/30 10:05:25;;;;;;;3.88;2.60;;;;;;;;;;5026484;28;20224;-34
2023/05/30 10:07:53;;;;;;;4.03;2.60;;;;;;;;;;5033864;28;20594;-32
2023/05/30 10:10:20;;;;;;;5.28;2.90;;;;;;;;;;5023147;28;20765;-32
2023/05/30 10:12:49;;;;;;;5.10;2.60;;;;;;;;;;5021065;28;20207;-30
2023/05/30 10:15:16;;;;;;;4.13;2.70;;;;;;;;;;5032592;28;20207;-31
2023/05/30 10:17:47;;;;;;;4.90;2.88;;;;;;;;;;5021220;28;20211;-31
2023/05/30 10:20:16;;;;;;;4.43;2.60;;;;;;;;;;5030741;28;20200;-33
2023/05/30 10:22:44;;;;;;;4.93;2.88;;;;;;;;;;5014578;28;20216;-31
2023/05/30 10:25:12;;;;;;;4.95;2.35;;;;;;;;;;5016851;28;20207;-32
2023/05/30 10:27:41;;;;;;;6.05;2.75;;;;;;;;;;5013563;28;20231;-35
2023/05/30 10:30:09;;;;;;;5.38;3.20;;;;;;;;;;5019344;28;20203;-31
2023/05/30 10:32:38;;;;;;;3.28;2.45;;;;;;;;;;5014912;28;20231;-33
2023/05/30 10:35:07;;;;;;;4.38;2.65;;;;;;;;;;5031038;28;20211;-31
2023/05/30 10:37:36;;;;;;;2.95;2.63;;;;;;;;;;5033372;28;20213;-31
2023/05/30 10:40:12;;;;;;;2.63;2.42;;;;;;;;;;5029674;28;20618;-30
2023/05/30 10:42:42;;;;;;;3.65;2.30;;;;;;;;;;5014996;28;20200;-33
2023/05/30 10:45:15;;;;;;;2.72;2.45;;;;;;;;;;5025193;28;20208;-32
2023/05/30 10:47:47;;;;;;;6.15;2.83;;;;;;;;;;5021535;28;20211;-33
2023/05/30 10:50:19;;;;;;;3.70;2.50;;;;;;;;;;5022071;28;20195;-33
2023/05/30 10:52:48;;;;;;;4.22;2.50;;;;;;;;;;5013405;28;20537;-33
2023/05/30 10:55:15;;;;;;;4.10;2.38;;;;;;;;;;5013615;28;20217;-34
2023/05/30 10:57:43;;;;;;;3.10;2.80;;;;;;;;;;5026414;28;20200;-34
2023/05/30 11:00:22;;;;;;;2.80;2.60;;;;;;;;;;5031805;28;20211;-32
2023/05/30 11:02:51;;;;;;;3.47;2.78;;;;;;;;;;5015834;28;20227;-33
2023/05/30 11:05:21;;;;;;;5.13;2.38;;;;;;;;;;5024441;28;20199;-32
2023/05/30 11:07:49;;;;;;;5.85;2.70;;;;;;;;;;5033492;28;20276;-33
2023/05/30 11:10:25;;;;;;;4.53;2.45;;;;;;;;;;5031160;28;20210;-31
2023/05/30 11:12:52;;;;;;;4.20;2.80;;;;;;;;;;5014907;28;20206;-33
2023/05/30 11:15:32;;;;;;;3.03;2.47;;;;;;;;;;5024799;28;20205;-34
2023/05/30 11:18:00;;;;;;;5.80;2.50;;;;;;;;;;5012489;28;20209;-33
2023/05/30 11:20:27;;;;;;;8.68;2.72;;;;;;;;;;5025836;28;20225;-35
2023/05/30 11:23:13;;;;;;;3.53;2.70;;;;;;;;;;5032598;28;20199;-33
2023/05/30 11:25:41;;;;;;;4.90;2.58;;;;;;;;;;5025376;28;20238;-33
2023/05/30 11:28:15;;;;;;;3.65;2.50;;;;;;;;;;5019402;28;20231;-32
2023/05/30 11:30:45;;;;;;;3.97;2.50;;;;;;;;;;5031395;28;20199;-33
2023/05/30 11:33:12;;;;;;;6.95;2.75;;;;;;;;;;5026383;28;20219;-34
2023/05/30 11:35:40;;;;;;;3.22;2.20;;;;;;;;;;5031327;28;20225;-32
2023/05/30 11:38:07;;;;;;;3.13;2.75;;;;;;;;;;5032621;28;20203;-32
2023/05/30 11:40:34;;;;;;;3.78;2.28;;;;;;;;;;5029388;28;20256;-33
2023/05/30 11:43:04;;;;;;;3.75;2.75;;;;;;;;;;5013803;28;20227;-33
2023/05/30 11:45:32;;;;;;;2.30;2.10;;;;;;;;;;5018380;28;20281;-30
2023/05/30 11:48:04;;;;;;;6.22;2.40;;;;;;;;;;5018094;28;20234;-34
2023/05/30 11:50:37;;;;;;;2.97;2.60;;;;;;;;;;5017432;28;20203;-31
2023/05/30 11:53:13;;;;;;;3.42;2.35;;;;;;;;;;5032199;28;20202;-33
2023/05/30 11:55:40;;;;;;;2.50;2.17;;;;;;;;;;5026740;28;20929;-33
2023/05/30 11:58:09;;;;;;;4.65;2.83;;;;;;;;;;5027281;28;20198;-35
2023/05/30 12:00:36;;;;;;;5.10;2.58;;;;;;;;;;5024086;28;20196;-32
2023/05/30 12:03:04;;;;;;;7.68;2.60;;;;;;;;;;5025904;28;20223;-36
2023/05/30 12:05:31;;;;;;;2.50;2.30;;;;;;;;;;5016988;28;20280;-33
2023/05/30 12:07:58;;;;;;;4.43;2.85;;;;;;;;;;5032211;28;20228;-35
2023/05/30 12:10:31;;;;;;;3.55;2.25;;;;;;;;;;5030010;28;20203;-34
2023/05/30 12:12:58;;;;;;;4.53;2.38;;;;;;;;;;5022081;28;20286;-34
2023/05/30 12:15:27;;;;;;;4.25;2.55;;;;;;;;;;5030187;28;20215;-34
2023/05/30 12:17:54;;;;;;;3.15;2.30;;;;;;;;;;5027516;28;20207;-32
2023/05/30 12:20:21;;;;;;;4.20;2.40;;;;;;;;;;5030326;28;20196;-32
2023/05/30 12:22:49;;;;;;;3.00;2.40;;;;;;;;;;5031710;28;20291;-33
2023/05/30 12:25:16;;;;;;;5.10;2.75;;;;;;;;;;5028175;28;20204;-31
2023/05/30 12:27:44;;;;;;;4.32;2.40;;;;;;;;;;5022633;28;20219;-30
2023/05/30 12:30:14;;;;;;;4.13;2.20;;;;;;;;;;5031649;28;20243;-33
2023/05/30 12:32:44;;;;;;;3.92;2.60;;;;;;;;;;5022902;28;20224;-32
2023/05/30 12:35:11;;;;;;;4.57;2.35;;;;;;;;;;5022710;28;20236;-31
2023/05/30 12:37:39;;;;;;;4.03;2.30;;;;;;;;;;5032897;28;20256;-35
2023/05/30 12:40:07;;;;;;;4.63;2.47;;;;;;;;;;5036117;28;20235;-32
2023/05/30 12:42:36;;;;;;;5.07;2.50;;;;;;;;;;5032622;28;20216;-31
2023/05/30 12:45:04;;;;;;;4.00;2.45;;;;;;;;;;5025806;28;20209;-32
2023/05/30 12:47:31;;;;;;;10.18;2.60;;;;;;;;;;5015520;28;20221;-32
2023/05/30 12:50:00;;;;;;;4.93;2.53;;;;;;;;;;5033905;28;20242;-34
2023/05/30 12:52:27;;;;;;;3.38;2.70;;;;;;;;;;5015804;28;20259;-32
2023/05/30 12:54:55;;;;;;;3.70;2.60;;;;;;;;;;5016324;28;20214;-33
2023/05/30 12:57:25;;;;;;;4.65;2.85;;;;;;;;;;5022360;28;20283;-33
2023/05/30 12:59:52;;;;;;;5.32;2.97;;;;;;;;;;5024697;28;20563;-33
2023/05/30 13:02:20;;;;;;;4.45;2.70;;;;;;;;;;5026783;28;20222;-33
2023/05/30 13:04:47;;;;;;;6.97;2.55;;;;;;;;;;5024652;28;20213;-33
2023/05/30 13:07:16;;;;;;;5.15;2.60;;;;;;;;;;5016092;28;20225;-32
2023/05/30 13:09:44;;;;;;;4.03;2.38;;;;;;;;;;5016133;28;20283;-32
2023/05/30 13:12:12;;;;;;;3.30;2.60;;;;;;;;;;5024941;28;20216;-34
2023/05/30 13:14:40;;;;;;;5.78;2.72;;;;;;;;;;5026632;28;20266;-33
2023/05/30 13:17:09;;;;;;;4.40;2.45;;;;;;;;;;5029373;28;20240;-32
2023/05/30 13:19:37;;;;;;;5.85;2.70;;;;;;;;;;5036212;28;20207;-35
2023/05/30 13:22:04;;;;;;;4.03;2.60;;;;;;;;;;5035523;28;20275;-33
2023/05/30 13:24:33;;;;;;;6.47;2.50;;;;;;;;;;5027201;28;20304;-32
2023/05/30 13:27:00;;;;;;;2.58;2.20;;;;;;;;;;5022017;28;20227;-32
2023/05/30 13:29:27;;;;;;;4.75;2.50;;;;;;;;;;5027003;28;20565;-33
2023/05/30 13:31:55;;;;;;;6.72;3.03;;;;;;;;;;5026065;28;20216;-30
2023/05/30 13:34:22;;;;;;;3.85;2.42;;;;;;;;;;5015547;28;20213;-32
2023/05/30 13:36:49;;;;;;;3.97;2.53;;;;;;;;;;5014249;28;20636;-30
2023/05/30 13:39:16;;;;;;;3.50;2.22;;;;;;;;;;5018605;28;20216;-33
2023/05/30 13:41:45;;;;;;;2.58;2.38;;;;;;;;;;5029593;28;20212;-31
2023/05/30 13:44:12;;;;;;;5.03;2.40;;;;;;;;;;5032034;28;20216;-32
2023/05/30 13:46:39;;;;;;;4.45;2.95;;;;;;;;;;5021140;28;20551;-32
2023/05/30 13:49:07;;;;;;;4.65;2.60;;;;;;;;;;5032857;28;20225;-33
2023/05/30 13:51:34;;;;;;;4.90;2.45;;;;;;;;;;5020884;28;20739;-33
2023/05/30 13:54:03;;;;;;;4.63;2.55;;;;;;;;;;5014469;28;20216;-30
2023/05/30 13:56:30;;;;;;;2.97;2.17;;;;;;;;;;5024259;28;20303;-35
2023/05/30 13:58:59;;;;;;;3.63;2.50;;;;;;;;;;5032806;28;20215;-36
2023/05/30 14:01:26;;;;;;;5.50;2.05;;;;;;;;;;5026599;28;20209;-32
2023/05/30 14:03:53;;;;;;;4.10;2.47;;;;;;;;;;5013491;28;20302;-32
2023/05/30 14:06:20;;;;;;;3.65;2.63;;;;;;;;;;5033687;28;20699;-30
2023/05/30 14:08:47;;;;;;;3.88;2.38;;;;;;;;;;5029472;28;20224;-32
2023/05/30 14:11:15;;;;;;;4.35;2.90;;;;;;;;;;5025445;28;20209;-33
2023/05/30 14:13:43;;;;;;;5.38;2.53;;;;;;;;;;5033164;28;20225;-32
2023/05/30 14:16:11;;;;;;;3.03;2.15;;;;;;;;;;5029526;28;20232;-33
2023/05/30 14:18:40;;;;;;;5.57;2.28;;;;;;;;;;5017093;28;20548;-30
2023/05/30 14:21:07;;;;;;;2.35;2.15;;;;;;;;;;5022138;28;20263;-33
2023/05/30 14:23:35;;;;;;;5.18;2.40;;;;;;;;;;5014137;28;20220;-35
2023/05/30 14:26:02;;;;;;;3.92;2.40;;;;;;;;;;5014167;28;20239;-32
2023/05/30 14:28:31;;;;;;;3.03;2.67;;;;;;;;;;5014583;28;20228;-33
2023/05/30 14:30:58;;;;;;;3.55;2.22;;;;;;;;;;5026173;28;20213;-30
2023/05/30 14:33:27;;;;;;;2.03;1.83;;;;;;;;;;5028111;28;20206;-32
2023/05/30 14:35:54;;;;;;;3.80;2.33;;;;;;;;;;5016888;28;20233;-33
2023/05/30 14:38:27;;;;;;;4.43;2.65;;;;;;;;;;5013692;28;20691;-35
2023/05/30 14:40:54;;;;;;;4.55;2.38;;;;;;;;;;5017143;28;20227;-29
2023/05/30 14:43:22;;;;;;;3.42;2.38;;;;;;;;;;5026546;28;20206;-32
2023/05/30 14:45:49;;;;;;;6.35;2.60;;;;;;;;;;5016897;28;20314;-31
2023/05/30 14:48:16;;;;;;;3.58;2.55;;;;;;;;;;5018048;28;20299;-35